sensor_id;sensor_type;location;lat;lon;timestamp;temperature;humidity
44863;DHT22;30597;49.628;10.850;2022-08-19T00:00:18;27.30;55.20
44863;DHT22;30597;49.628;10.850;2022-08-19T00:02:44;27.30;55.20
44863;DHT22;30597;49.628;10.850;2022-08-19T00:05:12;27.40;55.30
44863;DHT22;30597;49.628;10.850;2022-08-19T00:07:38;27.40;55.30
44863;DHT22;30597;49.628;10.850;2022-08-19T00:10:05;27.40;55.40
44863;DHT22;30597;49.628;10.850;2022-08-19T00:12:32;27.40;55.40
44863;DHT22;30597;49.628;10.850;2022-08-19T00:14:57;27.40;55.50
44863;DHT22;30597;49.628;10.850;2022-08-19T00:17:23;27.40;55.60
44863;DHT22;30597;49.628;10.850;2022-08-19T00:19:49;27.40;55.50
44863;DHT22;30597;49.628;10.850;2022-08-19T00:22:14;27.30;55.50
44863;DHT22;30597;49.628;10.850;2022-08-19T00:24:41;27.40;55.40
44863;DHT22;30597;49.628;10.850;2022-08-19T00:27:08;27.40;55.40
44863;DHT22;30597;49.628;10.850;2022-08-19T00:29:34;27.40;55.30
44863;DHT22;30597;49.628;10.850;2022-08-19T00:31:59;27.40;55.30
44863;DHT22;30597;49.628;10.850;2022-08-19T00:34:26;27.40;55.40
44863;DHT22;30597;49.628;10.850;2022-08-19T00:36:53;27.40;55.50
44863;DHT22;30597;49.628;10.850;2022-08-19T00:39:19;27.40;55.60
44863;DHT22;30597;49.628;10.850;2022-08-19T00:41:46;27.30;55.50
44863;DHT22;30597;49.628;10.850;2022-08-19T00:44:15;27.40;55.50
44863;DHT22;30597;49.628;10.850;2022-08-19T00:46:44;27.30;55.60
44863;DHT22;30597;49.628;10.850;2022-08-19T00:49:18;27.30;55.70
44863;DHT22;30597;49.628;10.850;2022-08-19T00:51:48;27.40;55.70
44863;DHT22;30597;49.628;10.850;2022-08-19T00:54:16;27.40;55.70
44863;DHT22;30597;49.628;10.850;2022-08-19T00:56:42;27.30;55.80
44863;DHT22;30597;49.628;10.850;2022-08-19T00:59:09;27.40;56.20
44863;DHT22;30597;49.628;10.850;2022-08-19T01:01:37;27.30;55.80
44863;DHT22;30597;49.628;10.850;2022-08-19T01:04:03;27.30;55.70
44863;DHT22;30597;49.628;10.850;2022-08-19T01:06:29;27.30;55.70
44863;DHT22;30597;49.628;10.850;2022-08-19T01:08:58;27.40;55.70
44863;DHT22;30597;49.628;10.850;2022-08-19T01:11:23;27.30;55.80
44863;DHT22;30597;49.628;10.850;2022-08-19T01:13:50;27.30;55.70
44863;DHT22;30597;49.628;10.850;2022-08-19T01:16:19;27.30;55.70
44863;DHT22;30597;49.628;10.850;2022-08-19T01:18:45;27.40;55.70
44863;DHT22;30597;49.628;10.850;2022-08-19T01:21:31;27.30;55.70
44863;DHT22;30597;49.628;10.850;2022-08-19T01:23:58;27.40;55.60
44863;DHT22;30597;49.628;10.850;2022-08-19T01:26:24;27.30;55.50
44863;DHT22;30597;49.628;10.850;2022-08-19T01:28:54;27.30;55.50
44863;DHT22;30597;49.628;10.850;2022-08-19T01:31:24;27.30;55.40
44863;DHT22;30597;49.628;10.850;2022-08-19T01:33:52;27.40;55.50
44863;DHT22;30597;49.628;10.850;2022-08-19T01:38:52;27.30;55.50
44863;DHT22;30597;49.628;10.850;2022-08-19T01:41:19;27.40;55.40
44863;DHT22;30597;49.628;10.850;2022-08-19T01:43:45;27.40;55.40
44863;DHT22;30597;49.628;10.850;2022-08-19T01:46:11;27.40;55.30
44863;DHT22;30597;49.628;10.850;2022-08-19T01:48:41;27.40;55.20
44863;DHT22;30597;49.628;10.850;2022-08-19T01:51:07;27.40;55.20
44863;DHT22;30597;49.628;10.850;2022-08-19T01:53:34;27.40;55.30
44863;DHT22;30597;49.628;10.850;2022-08-19T01:56:00;27.40;55.30
44863;DHT22;30597;49.628;10.850;2022-08-19T01:58:33;27.40;55.40
44863;DHT22;30597;49.628;10.850;2022-08-19T02:01:01;27.40;55.30
44863;DHT22;30597;49.628;10.850;2022-08-19T02:03:27;27.40;55.30
44863;DHT22;30597;49.628;10.850;2022-08-19T02:05:56;27.30;55.30
44863;DHT22;30597;49.628;10.850;2022-08-19T02:08:23;27.30;55.30
44863;DHT22;30597;49.628;10.850;2022-08-19T02:10:49;27.40;55.30
44863;DHT22;30597;49.628;10.850;2022-08-19T02:13:15;27.40;55.40
44863;DHT22;30597;49.628;10.850;2022-08-19T02:15:41;27.30;56.10
44863;DHT22;30597;49.628;10.850;2022-08-19T02:18:07;27.40;55.60
44863;DHT22;30597;49.628;10.850;2022-08-19T02:20:34;27.30;55.50
44863;DHT22;30597;49.628;10.850;2022-08-19T02:23:00;27.40;55.50
44863;DHT22;30597;49.628;10.850;2022-08-19T02:25:27;27.40;55.50
44863;DHT22;30597;49.628;10.850;2022-08-19T02:27:52;27.30;55.50
44863;DHT22;30597;49.628;10.850;2022-08-19T02:30:19;27.30;55.40
44863;DHT22;30597;49.628;10.850;2022-08-19T02:32:45;27.40;55.40
44863;DHT22;30597;49.628;10.850;2022-08-19T02:35:11;27.40;55.40
44863;DHT22;30597;49.628;10.850;2022-08-19T02:37:37;27.30;55.30
44863;DHT22;30597;49.628;10.850;2022-08-19T02:40:21;27.30;55.30
44863;DHT22;30597;49.628;10.850;2022-08-19T02:42:47;27.30;55.30
44863;DHT22;30597;49.628;10.850;2022-08-19T02:45:14;27.30;55.30
44863;DHT22;30597;49.628;10.850;2022-08-19T02:47:40;27.30;55.90
44863;DHT22;30597;49.628;10.850;2022-08-19T02:50:06;27.30;55.20
44863;DHT22;30597;49.628;10.850;2022-08-19T02:52:33;27.30;55.20
44863;DHT22;30597;49.628;10.850;2022-08-19T02:54:59;27.30;55.10
44863;DHT22;30597;49.628;10.850;2022-08-19T02:57:25;27.30;55.00
44863;DHT22;30597;49.628;10.850;2022-08-19T02:59:51;27.30;55.00
44863;DHT22;30597;49.628;10.850;2022-08-19T03:02:17;27.30;55.10
44863;DHT22;30597;49.628;10.850;2022-08-19T03:04:43;27.30;55.00
44863;DHT22;30597;49.628;10.850;2022-08-19T03:07:09;27.30;55.20
44863;DHT22;30597;49.628;10.850;2022-08-19T03:09:38;27.30;55.10
44863;DHT22;30597;49.628;10.850;2022-08-19T03:12:05;27.30;55.10
44863;DHT22;30597;49.628;10.850;2022-08-19T03:14:32;27.30;55.10
44863;DHT22;30597;49.628;10.850;2022-08-19T03:16:58;27.30;55.10
44863;DHT22;30597;49.628;10.850;2022-08-19T03:19:24;27.30;55.20
44863;DHT22;30597;49.628;10.850;2022-08-19T03:21:50;27.30;55.20
44863;DHT22;30597;49.628;10.850;2022-08-19T03:24:17;27.30;55.10
44863;DHT22;30597;49.628;10.850;2022-08-19T03:26:47;27.30;55.00
44863;DHT22;30597;49.628;10.850;2022-08-19T03:29:13;27.30;55.00
44863;DHT22;30597;49.628;10.850;2022-08-19T03:31:41;27.30;55.00
44863;DHT22;30597;49.628;10.850;2022-08-19T03:34:06;27.30;55.10
44863;DHT22;30597;49.628;10.850;2022-08-19T03:36:33;27.30;55.10
44863;DHT22;30597;49.628;10.850;2022-08-19T03:39:00;27.30;55.10
44863;DHT22;30597;49.628;10.850;2022-08-19T03:41:30;27.30;55.10
44863;DHT22;30597;49.628;10.850;2022-08-19T03:43:57;27.30;55.10
44863;DHT22;30597;49.628;10.850;2022-08-19T03:46:25;27.30;55.10
44863;DHT22;30597;49.628;10.850;2022-08-19T03:48:53;27.30;55.10
44863;DHT22;30597;49.628;10.850;2022-08-19T03:51:36;27.30;55.10
44863;DHT22;30597;49.628;10.850;2022-08-19T03:54:06;27.30;55.10
44863;DHT22;30597;49.628;10.850;2022-08-19T03:56:34;27.30;55.40
44863;DHT22;30597;49.628;10.850;2022-08-19T03:59:01;27.30;55.50
44863;DHT22;30597;49.628;10.850;2022-08-19T04:01:28;27.30;55.40
44863;DHT22;30597;49.628;10.850;2022-08-19T04:03:56;27.30;55.30
44863;DHT22;30597;49.628;10.850;2022-08-19T04:06:39;27.30;55.30
44863;DHT22;30597;49.628;10.850;2022-08-19T04:09:09;27.30;55.40
44863;DHT22;30597;49.628;10.850;2022-08-19T04:11:40;27.30;55.20
44863;DHT22;30597;49.628;10.850;2022-08-19T04:14:07;27.30;55.20
44863;DHT22;30597;49.628;10.850;2022-08-19T04:16:34;27.40;55.30
44863;DHT22;30597;49.628;10.850;2022-08-19T04:19:01;27.30;55.10
44863;DHT22;30597;49.628;10.850;2022-08-19T04:21:28;27.30;55.00
44863;DHT22;30597;49.628;10.850;2022-08-19T04:23:55;27.30;55.10
44863;DHT22;30597;49.628;10.850;2022-08-19T04:26:24;27.30;55.10
44863;DHT22;30597;49.628;10.850;2022-08-19T04:28:50;27.30;55.10
44863;DHT22;30597;49.628;10.850;2022-08-19T04:31:22;27.30;55.10
44863;DHT22;30597;49.628;10.850;2022-08-19T04:33:54;27.30;55.10
44863;DHT22;30597;49.628;10.850;2022-08-19T04:36:25;27.30;55.10
44863;DHT22;30597;49.628;10.850;2022-08-19T04:38:54;27.30;55.30
44863;DHT22;30597;49.628;10.850;2022-08-19T04:41:20;27.30;55.10
44863;DHT22;30597;49.628;10.850;2022-08-19T04:44:05;27.20;55.20
44863;DHT22;30597;49.628;10.850;2022-08-19T04:46:31;27.30;55.20
44863;DHT22;30597;49.628;10.850;2022-08-19T04:48:58;27.30;55.10
44863;DHT22;30597;49.628;10.850;2022-08-19T04:51:23;27.30;55.10
44863;DHT22;30597;49.628;10.850;2022-08-19T04:53:49;27.30;55.10
44863;DHT22;30597;49.628;10.850;2022-08-19T04:56:17;27.30;55.10
44863;DHT22;30597;49.628;10.850;2022-08-19T04:58:45;27.30;55.10
44863;DHT22;30597;49.628;10.850;2022-08-19T05:01:21;27.30;55.10
44863;DHT22;30597;49.628;10.850;2022-08-19T05:03:47;27.30;55.10
44863;DHT22;30597;49.628;10.850;2022-08-19T05:06:15;27.30;55.00
44863;DHT22;30597;49.628;10.850;2022-08-19T05:08:42;27.30;54.90
44863;DHT22;30597;49.628;10.850;2022-08-19T05:11:22;27.30;54.90
44863;DHT22;30597;49.628;10.850;2022-08-19T05:13:48;27.30;55.00
44863;DHT22;30597;49.628;10.850;2022-08-19T05:16:15;27.30;55.10
44863;DHT22;30597;49.628;10.850;2022-08-19T05:18:42;27.30;55.10
44863;DHT22;30597;49.628;10.850;2022-08-19T05:21:27;27.30;55.20
44863;DHT22;30597;49.628;10.850;2022-08-19T05:24:11;27.30;55.20
44863;DHT22;30597;49.628;10.850;2022-08-19T05:26:40;27.30;55.30
44863;DHT22;30597;49.628;10.850;2022-08-19T05:29:07;27.30;55.20
44863;DHT22;30597;49.628;10.850;2022-08-19T05:31:34;27.30;55.20
44863;DHT22;30597;49.628;10.850;2022-08-19T05:34:00;27.30;55.10
44863;DHT22;30597;49.628;10.850;2022-08-19T05:36:27;27.30;55.00
44863;DHT22;30597;49.628;10.850;2022-08-19T05:38:53;27.30;55.00
44863;DHT22;30597;49.628;10.850;2022-08-19T05:41:20;27.30;55.10
44863;DHT22;30597;49.628;10.850;2022-08-19T05:43:46;27.30;55.10
44863;DHT22;30597;49.628;10.850;2022-08-19T05:46:18;27.30;55.20
44863;DHT22;30597;49.628;10.850;2022-08-19T05:48:44;27.30;55.10
44863;DHT22;30597;49.628;10.850;2022-08-19T05:51:10;27.30;55.20
44863;DHT22;30597;49.628;10.850;2022-08-19T05:53:36;27.30;55.20
44863;DHT22;30597;49.628;10.850;2022-08-19T05:56:10;27.30;55.10
44863;DHT22;30597;49.628;10.850;2022-08-19T05:58:37;27.30;55.10
44863;DHT22;30597;49.628;10.850;2022-08-19T06:01:10;27.30;55.00
44863;DHT22;30597;49.628;10.850;2022-08-19T06:03:37;27.30;55.80
44863;DHT22;30597;49.628;10.850;2022-08-19T06:06:04;27.30;55.10
44863;DHT22;30597;49.628;10.850;2022-08-19T06:08:31;27.30;55.20
44863;DHT22;30597;49.628;10.850;2022-08-19T06:10:57;27.30;55.20
44863;DHT22;30597;49.628;10.850;2022-08-19T06:13:22;27.30;55.20
44863;DHT22;30597;49.628;10.850;2022-08-19T06:15:49;27.30;55.20
44863;DHT22;30597;49.628;10.850;2022-08-19T06:18:15;27.30;55.10
44863;DHT22;30597;49.628;10.850;2022-08-19T06:20:41;27.30;55.10
44863;DHT22;30597;49.628;10.850;2022-08-19T06:23:08;27.30;55.10
44863;DHT22;30597;49.628;10.850;2022-08-19T06:25:34;27.30;55.20
44863;DHT22;30597;49.628;10.850;2022-08-19T06:27:59;27.30;54.90
44863;DHT22;30597;49.628;10.850;2022-08-19T06:30:25;27.40;54.60
44863;DHT22;30597;49.628;10.850;2022-08-19T06:32:51;27.40;54.50
44863;DHT22;30597;49.628;10.850;2022-08-19T06:35:16;27.40;54.50
44863;DHT22;30597;49.628;10.850;2022-08-19T06:37:42;27.50;54.40
44863;DHT22;30597;49.628;10.850;2022-08-19T06:40:08;27.50;54.20
44863;DHT22;30597;49.628;10.850;2022-08-19T06:42:36;27.40;54.00
44863;DHT22;30597;49.628;10.850;2022-08-19T06:45:05;27.40;53.90
44863;DHT22;30597;49.628;10.850;2022-08-19T06:47:31;27.40;53.90
44863;DHT22;30597;49.628;10.850;2022-08-19T06:49:59;27.40;54.00
44863;DHT22;30597;49.628;10.850;2022-08-19T06:52:28;27.50;54.10
44863;DHT22;30597;49.628;10.850;2022-08-19T06:54:54;27.40;54.30
44863;DHT22;30597;49.628;10.850;2022-08-19T06:57:22;27.50;54.40
44863;DHT22;30597;49.628;10.850;2022-08-19T06:59:48;27.50;54.30
44863;DHT22;30597;49.628;10.850;2022-08-19T07:02:14;27.50;53.60
44863;DHT22;30597;49.628;10.850;2022-08-19T07:04:39;27.40;53.70
44863;DHT22;30597;49.628;10.850;2022-08-19T07:07:08;27.40;54.00
44863;DHT22;30597;49.628;10.850;2022-08-19T07:09:37;27.20;54.40
44863;DHT22;30597;49.628;10.850;2022-08-19T07:12:04;27.00;54.60
44863;DHT22;30597;49.628;10.850;2022-08-19T07:14:32;27.00;54.80
44863;DHT22;30597;49.628;10.850;2022-08-19T07:17:05;26.90;54.80
44863;DHT22;30597;49.628;10.850;2022-08-19T07:19:31;26.80;54.90
44863;DHT22;30597;49.628;10.850;2022-08-19T07:21:57;26.80;54.90
44863;DHT22;30597;49.628;10.850;2022-08-19T07:24:23;26.80;55.80
44863;DHT22;30597;49.628;10.850;2022-08-19T07:26:51;26.70;55.50
44863;DHT22;30597;49.628;10.850;2022-08-19T07:29:18;26.70;55.50
44863;DHT22;30597;49.628;10.850;2022-08-19T07:31:44;26.60;55.50
44863;DHT22;30597;49.628;10.850;2022-08-19T07:34:11;26.60;55.70
44863;DHT22;30597;49.628;10.850;2022-08-19T07:36:40;26.70;55.50
44863;DHT22;30597;49.628;10.850;2022-08-19T07:39:13;26.70;55.50
44863;DHT22;30597;49.628;10.850;2022-08-19T07:41:39;26.60;55.80
44863;DHT22;30597;49.628;10.850;2022-08-19T07:44:07;26.60;55.80
44863;DHT22;30597;49.628;10.850;2022-08-19T07:46:35;26.60;55.80
44863;DHT22;30597;49.628;10.850;2022-08-19T07:49:01;26.60;56.10
44863;DHT22;30597;49.628;10.850;2022-08-19T07:51:27;26.60;55.90
44863;DHT22;30597;49.628;10.850;2022-08-19T07:53:53;26.60;55.80
44863;DHT22;30597;49.628;10.850;2022-08-19T07:56:20;26.60;55.80
44863;DHT22;30597;49.628;10.850;2022-08-19T07:58:47;26.50;55.90
44863;DHT22;30597;49.628;10.850;2022-08-19T08:01:17;26.50;56.00
44863;DHT22;30597;49.628;10.850;2022-08-19T08:03:43;26.60;55.90
44863;DHT22;30597;49.628;10.850;2022-08-19T08:06:28;26.60;55.50
44863;DHT22;30597;49.628;10.850;2022-08-19T08:09:12;26.70;55.20
44863;DHT22;30597;49.628;10.850;2022-08-19T08:11:50;26.80;55.00
44863;DHT22;30597;49.628;10.850;2022-08-19T08:14:23;26.80;55.30
44863;DHT22;30597;49.628;10.850;2022-08-19T08:16:49;26.80;55.30
44863;DHT22;30597;49.628;10.850;2022-08-19T08:19:17;26.90;55.10
44863;DHT22;30597;49.628;10.850;2022-08-19T08:21:43;26.90;55.00
44863;DHT22;30597;49.628;10.850;2022-08-19T08:24:09;26.90;54.80
44863;DHT22;30597;49.628;10.850;2022-08-19T08:26:35;26.90;54.80
44863;DHT22;30597;49.628;10.850;2022-08-19T08:29:01;27.00;54.70
44863;DHT22;30597;49.628;10.850;2022-08-19T08:31:26;27.00;54.50
44863;DHT22;30597;49.628;10.850;2022-08-19T08:33:52;27.00;54.40
44863;DHT22;30597;49.628;10.850;2022-08-19T08:36:18;27.00;54.20
44863;DHT22;30597;49.628;10.850;2022-08-19T08:38:44;27.10;54.10
44863;DHT22;30597;49.628;10.850;2022-08-19T08:43:49;27.10;54.00
44863;DHT22;30597;49.628;10.850;2022-08-19T08:46:24;27.10;53.90
44863;DHT22;30597;49.628;10.850;2022-08-19T08:51:32;27.10;53.80
44863;DHT22;30597;49.628;10.850;2022-08-19T08:53:59;27.10;53.80
44863;DHT22;30597;49.628;10.850;2022-08-19T08:56:25;27.10;53.60
44863;DHT22;30597;49.628;10.850;2022-08-19T08:59:07;27.10;53.50
44863;DHT22;30597;49.628;10.850;2022-08-19T09:01:35;27.10;53.50
44863;DHT22;30597;49.628;10.850;2022-08-19T09:04:05;27.10;53.50
44863;DHT22;30597;49.628;10.850;2022-08-19T09:06:40;27.10;53.40
44863;DHT22;30597;49.628;10.850;2022-08-19T09:09:29;27.10;53.40
44863;DHT22;30597;49.628;10.850;2022-08-19T09:12:10;27.10;53.40
44863;DHT22;30597;49.628;10.850;2022-08-19T09:17:19;27.10;53.30
44863;DHT22;30597;49.628;10.850;2022-08-19T09:22:22;27.10;53.40
44863;DHT22;30597;49.628;10.850;2022-08-19T09:24:49;27.10;53.20
44863;DHT22;30597;49.628;10.850;2022-08-19T09:27:14;27.10;53.20
44863;DHT22;30597;49.628;10.850;2022-08-19T09:29:40;27.10;53.80
44863;DHT22;30597;49.628;10.850;2022-08-19T09:32:06;27.10;53.10
44863;DHT22;30597;49.628;10.850;2022-08-19T09:34:32;27.10;53.10
44863;DHT22;30597;49.628;10.850;2022-08-19T09:36:58;27.10;53.00
44863;DHT22;30597;49.628;10.850;2022-08-19T09:39:25;27.10;53.00
44863;DHT22;30597;49.628;10.850;2022-08-19T09:41:51;27.10;53.00
44863;DHT22;30597;49.628;10.850;2022-08-19T09:44:18;27.10;52.90
44863;DHT22;30597;49.628;10.850;2022-08-19T09:46:45;27.10;53.00
44863;DHT22;30597;49.628;10.850;2022-08-19T09:49:15;27.10;53.00
44863;DHT22;30597;49.628;10.850;2022-08-19T09:51:42;27.10;52.90
44863;DHT22;30597;49.628;10.850;2022-08-19T09:54:08;27.10;52.90
44863;DHT22;30597;49.628;10.850;2022-08-19T09:56:33;27.10;52.90
44863;DHT22;30597;49.628;10.850;2022-08-19T09:59:00;27.10;52.80
44863;DHT22;30597;49.628;10.850;2022-08-19T10:01:28;27.10;52.80
44863;DHT22;30597;49.628;10.850;2022-08-19T10:03:56;27.10;52.80
44863;DHT22;30597;49.628;10.850;2022-08-19T10:06:24;27.10;52.80
44863;DHT22;30597;49.628;10.850;2022-08-19T10:08:51;27.10;52.80
44863;DHT22;30597;49.628;10.850;2022-08-19T10:11:18;27.20;52.70
44863;DHT22;30597;49.628;10.850;2022-08-19T10:13:44;27.20;52.80
44863;DHT22;30597;49.628;10.850;2022-08-19T10:16:13;27.20;52.80
44863;DHT22;30597;49.628;10.850;2022-08-19T10:18:39;27.20;52.80
44863;DHT22;30597;49.628;10.850;2022-08-19T10:21:11;27.10;52.70
44863;DHT22;30597;49.628;10.850;2022-08-19T10:23:38;27.10;52.80
44863;DHT22;30597;49.628;10.850;2022-08-19T10:26:06;27.10;53.50
44863;DHT22;30597;49.628;10.850;2022-08-19T10:28:34;27.20;52.80
44863;DHT22;30597;49.628;10.850;2022-08-19T10:31:07;27.20;52.80
44863;DHT22;30597;49.628;10.850;2022-08-19T10:33:34;27.20;52.70
44863;DHT22;30597;49.628;10.850;2022-08-19T10:36:05;27.10;52.70
44863;DHT22;30597;49.628;10.850;2022-08-19T10:38:31;27.10;52.70
44863;DHT22;30597;49.628;10.850;2022-08-19T10:40:57;27.10;52.70
44863;DHT22;30597;49.628;10.850;2022-08-19T10:43:23;27.10;52.80
44863;DHT22;30597;49.628;10.850;2022-08-19T10:45:56;27.20;52.80
44863;DHT22;30597;49.628;10.850;2022-08-19T10:48:23;27.10;52.70
44863;DHT22;30597;49.628;10.850;2022-08-19T10:50:49;27.20;52.80
44863;DHT22;30597;49.628;10.850;2022-08-19T10:53:33;27.10;52.90
44863;DHT22;30597;49.628;10.850;2022-08-19T10:55:58;27.10;53.00
44863;DHT22;30597;49.628;10.850;2022-08-19T10:58:42;27.10;52.90
44863;DHT22;30597;49.628;10.850;2022-08-19T11:01:08;27.10;52.90
44863;DHT22;30597;49.628;10.850;2022-08-19T11:03:34;27.10;52.80
44863;DHT22;30597;49.628;10.850;2022-08-19T11:06:00;27.10;52.80
44863;DHT22;30597;49.628;10.850;2022-08-19T11:08:26;27.10;52.80
44863;DHT22;30597;49.628;10.850;2022-08-19T11:10:53;27.10;52.80
44863;DHT22;30597;49.628;10.850;2022-08-19T11:13:33;27.10;52.90
44863;DHT22;30597;49.628;10.850;2022-08-19T11:16:05;27.10;52.80
44863;DHT22;30597;49.628;10.850;2022-08-19T11:18:32;27.10;52.80
44863;DHT22;30597;49.628;10.850;2022-08-19T11:21:09;27.10;52.80
44863;DHT22;30597;49.628;10.850;2022-08-19T11:23:35;27.10;52.80
44863;DHT22;30597;49.628;10.850;2022-08-19T11:26:01;27.10;52.80
44863;DHT22;30597;49.628;10.850;2022-08-19T11:28:27;27.10;52.90
44863;DHT22;30597;49.628;10.850;2022-08-19T11:30:52;27.10;52.90
44863;DHT22;30597;49.628;10.850;2022-08-19T11:33:18;27.10;53.00
44863;DHT22;30597;49.628;10.850;2022-08-19T11:35:44;27.10;53.00
44863;DHT22;30597;49.628;10.850;2022-08-19T11:38:10;27.10;53.00
44863;DHT22;30597;49.628;10.850;2022-08-19T11:40:36;27.00;53.00
44863;DHT22;30597;49.628;10.850;2022-08-19T11:43:02;27.00;53.80
44863;DHT22;30597;49.628;10.850;2022-08-19T11:45:30;27.00;53.20
44863;DHT22;30597;49.628;10.850;2022-08-19T11:47:55;27.00;53.20
44863;DHT22;30597;49.628;10.850;2022-08-19T11:50:21;27.00;53.30
44863;DHT22;30597;49.628;10.850;2022-08-19T11:52:48;27.00;53.30
44863;DHT22;30597;49.628;10.850;2022-08-19T11:55:15;27.00;53.40
44863;DHT22;30597;49.628;10.850;2022-08-19T11:57:41;27.00;53.40
44863;DHT22;30597;49.628;10.850;2022-08-19T12:00:08;27.00;53.40
44863;DHT22;30597;49.628;10.850;2022-08-19T12:02:35;27.00;53.50
44863;DHT22;30597;49.628;10.850;2022-08-19T12:05:00;27.00;53.50
44863;DHT22;30597;49.628;10.850;2022-08-19T12:07:28;27.00;53.40
44863;DHT22;30597;49.628;10.850;2022-08-19T12:09:56;27.00;53.40
44863;DHT22;30597;49.628;10.850;2022-08-19T12:12:22;27.00;53.30
44863;DHT22;30597;49.628;10.850;2022-08-19T12:14:49;27.00;53.50
44863;DHT22;30597;49.628;10.850;2022-08-19T12:17:27;27.00;53.50
44863;DHT22;30597;49.628;10.850;2022-08-19T12:19:53;27.00;53.60
44863;DHT22;30597;49.628;10.850;2022-08-19T12:22:19;27.00;53.60
44863;DHT22;30597;49.628;10.850;2022-08-19T12:24:45;26.90;53.60
44863;DHT22;30597;49.628;10.850;2022-08-19T12:27:11;26.90;53.60
44863;DHT22;30597;49.628;10.850;2022-08-19T12:29:37;27.00;53.60
44863;DHT22;30597;49.628;10.850;2022-08-19T12:32:02;27.00;53.70
44863;DHT22;30597;49.628;10.850;2022-08-19T12:34:30;26.90;53.70
44863;DHT22;30597;49.628;10.850;2022-08-19T12:36:57;26.90;53.70
44863;DHT22;30597;49.628;10.850;2022-08-19T12:39:22;26.90;53.70
44863;DHT22;30597;49.628;10.850;2022-08-19T12:41:48;26.90;53.80
44863;DHT22;30597;49.628;10.850;2022-08-19T12:44:14;26.90;53.80
44863;DHT22;30597;49.628;10.850;2022-08-19T12:46:40;26.90;54.00
44863;DHT22;30597;49.628;10.850;2022-08-19T12:49:05;26.90;53.90
44863;DHT22;30597;49.628;10.850;2022-08-19T12:51:31;26.90;53.90
44863;DHT22;30597;49.628;10.850;2022-08-19T12:53:57;26.90;53.90
44863;DHT22;30597;49.628;10.850;2022-08-19T12:56:22;26.90;54.00
44863;DHT22;30597;49.628;10.850;2022-08-19T12:58:48;26.90;54.00
44863;DHT22;30597;49.628;10.850;2022-08-19T13:01:15;26.90;54.00
44863;DHT22;30597;49.628;10.850;2022-08-19T13:03:41;26.80;54.00
44863;DHT22;30597;49.628;10.850;2022-08-19T13:06:08;26.80;54.00
44863;DHT22;30597;49.628;10.850;2022-08-19T13:08:34;26.80;54.10
44863;DHT22;30597;49.628;10.850;2022-08-19T13:11:16;26.80;54.00
44863;DHT22;30597;49.628;10.850;2022-08-19T13:13:45;26.80;54.10
44863;DHT22;30597;49.628;10.850;2022-08-19T13:16:12;26.90;54.10
44863;DHT22;30597;49.628;10.850;2022-08-19T13:18:39;26.80;54.20
44863;DHT22;30597;49.628;10.850;2022-08-19T13:21:07;26.80;54.20
44863;DHT22;30597;49.628;10.850;2022-08-19T13:23:34;26.80;54.20
44863;DHT22;30597;49.628;10.850;2022-08-19T13:26:03;26.80;54.30
44863;DHT22;30597;49.628;10.850;2022-08-19T13:28:30;26.80;54.30
44863;DHT22;30597;49.628;10.850;2022-08-19T13:31:21;26.80;54.20
44863;DHT22;30597;49.628;10.850;2022-08-19T13:34:06;26.80;54.30
44863;DHT22;30597;49.628;10.850;2022-08-19T13:36:35;26.80;54.30
44863;DHT22;30597;49.628;10.850;2022-08-19T13:39:02;26.80;54.40
44863;DHT22;30597;49.628;10.850;2022-08-19T13:41:28;26.80;54.50
44863;DHT22;30597;49.628;10.850;2022-08-19T13:43:54;26.80;54.40
44863;DHT22;30597;49.628;10.850;2022-08-19T13:46:19;26.80;54.50
44863;DHT22;30597;49.628;10.850;2022-08-19T13:48:46;26.80;54.40
44863;DHT22;30597;49.628;10.850;2022-08-19T13:51:13;26.80;54.60
44863;DHT22;30597;49.628;10.850;2022-08-19T13:53:41;26.80;54.50
44863;DHT22;30597;49.628;10.850;2022-08-19T13:56:13;26.80;54.40
44863;DHT22;30597;49.628;10.850;2022-08-19T13:58:39;26.80;54.40
44863;DHT22;30597;49.628;10.850;2022-08-19T14:01:05;26.80;54.40
44863;DHT22;30597;49.628;10.850;2022-08-19T14:03:33;26.80;54.40
44863;DHT22;30597;49.628;10.850;2022-08-19T14:05:59;26.80;54.50
44863;DHT22;30597;49.628;10.850;2022-08-19T14:08:25;26.80;54.40
44863;DHT22;30597;49.628;10.850;2022-08-19T14:10:56;26.80;54.40
44863;DHT22;30597;49.628;10.850;2022-08-19T14:13:22;26.70;54.10
44863;DHT22;30597;49.628;10.850;2022-08-19T14:15:49;26.70;54.00
44863;DHT22;30597;49.628;10.850;2022-08-19T14:18:16;26.80;54.00
44863;DHT22;30597;49.628;10.850;2022-08-19T14:20:42;26.70;54.00
44863;DHT22;30597;49.628;10.850;2022-08-19T14:23:08;26.70;53.90
44863;DHT22;30597;49.628;10.850;2022-08-19T14:25:34;26.70;53.90
44863;DHT22;30597;49.628;10.850;2022-08-19T14:28:00;26.70;53.90
44863;DHT22;30597;49.628;10.850;2022-08-19T14:30:36;26.60;53.80
44863;DHT22;30597;49.628;10.850;2022-08-19T14:33:03;26.60;53.80
44863;DHT22;30597;49.628;10.850;2022-08-19T14:35:31;26.60;53.80
44863;DHT22;30597;49.628;10.850;2022-08-19T14:37:59;26.60;53.80
44863;DHT22;30597;49.628;10.850;2022-08-19T14:40:27;26.60;53.90
44863;DHT22;30597;49.628;10.850;2022-08-19T14:42:53;26.60;53.90
44863;DHT22;30597;49.628;10.850;2022-08-19T14:45:26;26.60;53.90
44863;DHT22;30597;49.628;10.850;2022-08-19T14:47:52;26.60;53.80
44863;DHT22;30597;49.628;10.850;2022-08-19T14:50:18;26.60;53.80
44863;DHT22;30597;49.628;10.850;2022-08-19T14:52:46;26.50;53.80
44863;DHT22;30597;49.628;10.850;2022-08-19T14:55:14;26.50;53.80
44863;DHT22;30597;49.628;10.850;2022-08-19T14:57:41;26.50;53.80
44863;DHT22;30597;49.628;10.850;2022-08-19T15:00:07;26.50;53.90
44863;DHT22;30597;49.628;10.850;2022-08-19T15:02:37;26.50;53.80
44863;DHT22;30597;49.628;10.850;2022-08-19T15:05:02;26.50;53.80
44863;DHT22;30597;49.628;10.850;2022-08-19T15:07:28;26.50;53.90
44863;DHT22;30597;49.628;10.850;2022-08-19T15:09:54;26.50;53.80
44863;DHT22;30597;49.628;10.850;2022-08-19T15:12:20;26.50;53.80
44863;DHT22;30597;49.628;10.850;2022-08-19T15:14:45;26.50;53.80
44863;DHT22;30597;49.628;10.850;2022-08-19T15:17:16;26.50;53.80
44863;DHT22;30597;49.628;10.850;2022-08-19T15:19:41;26.50;53.80
44863;DHT22;30597;49.628;10.850;2022-08-19T15:22:07;26.50;53.80
44863;DHT22;30597;49.628;10.850;2022-08-19T15:24:33;26.50;53.90
44863;DHT22;30597;49.628;10.850;2022-08-19T15:27:00;26.50;53.80
44863;DHT22;30597;49.628;10.850;2022-08-19T15:29:26;26.50;53.90
44863;DHT22;30597;49.628;10.850;2022-08-19T15:31:52;26.40;53.80